createdAt,value
2018-07-09T00:00:15.020Z,997.99
2018-07-09T00:01:15.019Z,997.99
2018-07-09T00:02:15.006Z,997.93
2018-07-09T00:03:15.001Z,997.96
2018-07-09T00:04:14.993Z,997.96
2018-07-09T00:05:15.076Z,997.95
2018-07-09T00:06:14.989Z,997.98
2018-07-09T00:07:14.972Z,997.98
2018-07-09T00:08:14.966Z,997.98
2018-07-09T00:09:14.959Z,997.99
2018-07-09T00:10:14.952Z,997.96
2018-07-09T00:11:14.946Z,997.97
2018-07-09T00:12:14.937Z,997.97
2018-07-09T00:13:14.934Z,997.99
2018-07-09T00:14:14.924Z,997.93
2018-07-09T00:15:14.919Z,997.98
2018-07-09T00:16:14.914Z,997.94
2018-07-09T00:17:14.908Z,998.00
2018-07-09T00:18:14.901Z,997.95
2018-07-09T00:19:14.891Z,998.00
2018-07-09T00:20:14.885Z,998.01
2018-07-09T00:21:14.882Z,997.98
2018-07-09T00:22:14.873Z,997.96
2018-07-09T00:23:14.862Z,998.01
2018-07-09T00:24:14.857Z,997.97
2018-07-09T00:25:14.853Z,997.95
2018-07-09T00:26:14.842Z,997.98
2018-07-09T00:27:14.836Z,997.92
2018-07-09T00:28:14.830Z,997.95
2018-07-09T00:29:14.823Z,997.92
2018-07-09T00:30:14.816Z,997.91
2018-07-09T00:31:14.810Z,997.92
2018-07-09T00:32:14.832Z,997.88
2018-07-09T00:33:14.802Z,997.93
2018-07-09T00:34:14.789Z,997.88
2018-07-09T00:35:14.786Z,997.90
2018-07-09T00:36:14.774Z,997.89
2018-07-09T00:37:14.772Z,997.87
2018-07-09T00:38:14.760Z,997.89
2018-07-09T00:39:14.754Z,997.90
2018-07-09T00:40:14.758Z,997.90
2018-07-09T00:41:14.741Z,997.89
2018-07-09T00:42:14.732Z,997.93
2018-07-09T00:43:14.729Z,997.89
2018-07-09T00:44:14.720Z,997.89
2018-07-09T00:45:14.734Z,997.88
2018-07-09T00:46:14.709Z,997.88
2018-07-09T00:47:14.700Z,997.90
2018-07-09T00:48:14.694Z,997.87
2018-07-09T00:49:14.687Z,997.88
2018-07-09T00:50:14.681Z,997.92
2018-07-09T00:51:14.674Z,997.90
2018-07-09T00:52:14.667Z,997.90
2018-07-09T00:53:14.661Z,997.89
2018-07-09T00:54:14.652Z,997.86
2018-07-09T00:55:14.645Z,997.88
2018-07-09T00:56:14.641Z,997.91
2018-07-09T00:57:14.634Z,997.90
2018-07-09T00:58:14.626Z,997.95
2018-07-09T00:59:14.618Z,997.90
2018-07-09T01:00:14.609Z,997.91
2018-07-09T01:01:14.614Z,997.89
2018-07-09T01:02:14.623Z,997.92
2018-07-09T01:03:14.590Z,997.88
2018-07-09T01:04:14.584Z,997.86
2018-07-09T01:05:14.578Z,997.88
2018-07-09T01:06:14.571Z,997.86
2018-07-09T01:07:14.563Z,997.83
2018-07-09T01:08:14.557Z,997.83
2018-07-09T01:09:14.569Z,997.83
2018-07-09T01:10:14.543Z,997.82
2018-07-09T01:11:14.539Z,997.80
2018-07-09T01:12:14.530Z,997.78
2018-07-09T01:13:14.527Z,997.79
2018-07-09T01:14:14.514Z,997.80
2018-07-09T01:15:14.508Z,997.76
2018-07-09T01:16:14.503Z,997.75
2018-07-09T01:17:14.495Z,997.70
2018-07-09T01:18:14.489Z,997.74
2018-07-09T01:19:14.480Z,997.74
2018-07-09T01:20:14.477Z,997.71
2018-07-09T01:21:14.470Z,997.69
2018-07-09T01:22:14.461Z,997.71
2018-07-09T01:23:14.454Z,997.71
2018-07-09T01:24:14.447Z,997.70
2018-07-09T01:25:14.440Z,997.73
2018-07-09T01:26:14.434Z,997.74
2018-07-09T01:27:14.425Z,997.73
2018-07-09T01:28:14.420Z,997.73
2018-07-09T01:29:14.413Z,997.69
2018-07-09T01:30:14.405Z,997.71
2018-07-09T01:31:14.403Z,997.67
2018-07-09T01:32:14.391Z,997.69
2018-07-09T01:33:14.391Z,997.70
2018-07-09T01:34:14.378Z,997.69
2018-07-09T01:35:14.374Z,997.71
2018-07-09T01:36:14.368Z,997.74
2018-07-09T01:37:14.356Z,997.70
2018-07-09T01:38:14.351Z,997.71
2018-07-09T01:39:14.345Z,997.71
2018-07-09T01:40:14.339Z,997.73
2018-07-09T01:41:14.330Z,997.67
2018-07-09T01:42:14.323Z,997.69
2018-07-09T01:43:14.316Z,997.69
2018-07-09T01:44:14.311Z,997.68
2018-07-09T01:45:14.303Z,997.66
2018-07-09T01:46:14.317Z,997.65
2018-07-09T01:47:14.289Z,997.65
2018-07-09T01:48:14.282Z,997.62
2018-07-09T01:49:14.277Z,997.63
2018-07-09T01:50:14.268Z,997.66
2018-07-09T01:51:14.264Z,997.67
2018-07-09T01:52:14.254Z,997.67
2018-07-09T01:53:14.246Z,997.70
2018-07-09T01:54:14.240Z,997.69
2018-07-09T01:55:14.235Z,997.68
2018-07-09T01:56:14.228Z,997.67
2018-07-09T01:57:14.221Z,997.66
2018-07-09T01:58:14.213Z,997.62
2018-07-09T01:59:14.205Z,997.64
2018-07-09T02:00:14.199Z,997.64
2018-07-09T02:01:14.196Z,997.69
2018-07-09T02:02:14.184Z,997.69
2018-07-09T02:03:14.179Z,997.69
2018-07-09T02:04:14.171Z,997.72
2018-07-09T02:05:14.166Z,997.69
2018-07-09T02:06:14.159Z,997.72
2018-07-09T02:07:14.150Z,997.69
2018-07-09T02:08:14.144Z,997.70
2018-07-09T02:09:14.137Z,997.73
2018-07-09T02:10:14.130Z,997.68
2018-07-09T02:11:14.127Z,997.71
2018-07-09T02:12:14.117Z,997.64
2018-07-09T02:13:14.112Z,997.62
2018-07-09T02:14:14.101Z,997.63
2018-07-09T02:15:14.095Z,997.63
2018-07-09T02:16:14.089Z,997.64
2018-07-09T02:17:14.083Z,997.67
2018-07-09T02:18:14.078Z,997.65
2018-07-09T02:19:14.067Z,997.66
2018-07-09T02:20:14.061Z,997.67
2018-07-09T02:21:14.054Z,997.65
2018-07-09T02:22:14.047Z,997.68
2018-07-09T02:23:14.040Z,997.62
2018-07-09T02:24:14.034Z,997.64
2018-07-09T02:25:14.026Z,997.64
2018-07-09T02:26:14.018Z,997.65
2018-07-09T02:27:14.013Z,997.65
2018-07-09T02:28:14.009Z,997.69
2018-07-09T02:29:13.997Z,997.68
2018-07-09T02:30:13.993Z,997.67
2018-07-09T02:31:13.985Z,997.68
2018-07-09T02:32:13.977Z,997.69
2018-07-09T02:33:13.972Z,997.65
2018-07-09T02:34:13.964Z,997.68
2018-07-09T02:35:13.958Z,997.67
2018-07-09T02:36:13.952Z,997.67
2018-07-09T02:37:13.946Z,997.69
2018-07-09T02:38:13.936Z,997.65
2018-07-09T02:39:13.930Z,997.67
2018-07-09T02:40:13.925Z,997.69
2018-07-09T02:41:13.916Z,997.68
2018-07-09T02:42:13.914Z,997.68
2018-07-09T02:43:13.905Z,997.69
2018-07-09T02:44:13.896Z,997.71
2018-07-09T02:45:13.888Z,997.68
2018-07-09T02:46:13.881Z,997.70
2018-07-09T02:47:13.873Z,997.70
2018-07-09T02:48:13.867Z,997.70
2018-07-09T02:49:13.872Z,997.67
2018-07-09T02:50:13.856Z,997.75
2018-07-09T02:51:13.846Z,997.72
2018-07-09T02:52:13.841Z,997.75
2018-07-09T02:53:13.833Z,997.76
2018-07-09T02:54:13.825Z,997.76
2018-07-09T02:55:13.820Z,997.72
2018-07-09T02:56:13.812Z,997.74
2018-07-09T02:57:13.805Z,997.68
2018-07-09T02:58:13.797Z,997.69
2018-07-09T02:59:13.791Z,997.69
2018-07-09T03:00:13.784Z,997.70
2018-07-09T03:01:13.886Z,997.67
2018-07-09T03:02:13.768Z,997.65
2018-07-09T03:03:13.764Z,997.71
2018-07-09T03:04:13.756Z,997.68
2018-07-09T03:05:13.752Z,997.71
2018-07-09T03:06:13.741Z,997.69
2018-07-09T03:07:13.735Z,997.70
2018-07-09T03:08:13.729Z,997.76
2018-07-09T03:09:13.728Z,997.69
2018-07-09T03:10:13.711Z,997.71
2018-07-09T03:11:13.706Z,997.69
2018-07-09T03:12:13.698Z,997.70
2018-07-09T03:13:13.693Z,997.74
2018-07-09T03:14:13.685Z,997.72
2018-07-09T03:15:13.679Z,997.77
2018-07-09T03:16:13.673Z,997.78
2018-07-09T03:17:13.666Z,997.78
2018-07-09T03:18:13.662Z,997.82
2018-07-09T03:19:13.679Z,997.83
2018-07-09T03:20:13.643Z,997.87
2018-07-09T03:21:13.641Z,997.88
2018-07-09T03:22:13.629Z,997.82
2018-07-09T03:23:13.620Z,997.87
2018-07-09T03:24:13.623Z,997.83
2018-07-09T03:25:13.609Z,997.80
2018-07-09T03:26:13.609Z,997.78
2018-07-09T03:27:13.595Z,997.78
2018-07-09T03:28:13.589Z,997.78
2018-07-09T03:29:13.584Z,997.77
2018-07-09T03:30:13.576Z,997.78
2018-07-09T03:31:13.568Z,997.80
2018-07-09T03:32:13.560Z,997.81
2018-07-09T03:33:13.555Z,997.77
2018-07-09T03:34:13.545Z,997.81
2018-07-09T03:35:13.538Z,997.86
2018-07-09T03:36:13.532Z,997.81
2018-07-09T03:37:13.524Z,997.82
2018-07-09T03:38:13.516Z,997.90
2018-07-09T03:39:13.513Z,997.91
2018-07-09T03:40:13.501Z,997.88
2018-07-09T03:41:13.494Z,997.83
2018-07-09T03:42:13.490Z,997.87
2018-07-09T03:43:13.482Z,997.93
2018-07-09T03:44:13.475Z,997.91
2018-07-09T03:45:13.466Z,997.89
2018-07-09T03:46:13.462Z,997.91
2018-07-09T03:47:13.454Z,997.88
2018-07-09T03:48:13.450Z,997.89
2018-07-09T03:49:13.436Z,997.93
2018-07-09T03:50:13.439Z,997.96
2018-07-09T03:51:13.428Z,997.93
2018-07-09T03:52:13.421Z,997.93
2018-07-09T03:53:13.418Z,997.92
2018-07-09T03:54:13.416Z,997.93
2018-07-09T03:55:13.405Z,997.92
2018-07-09T03:56:13.390Z,997.94
2018-07-09T03:57:13.392Z,997.96
2018-07-09T03:58:13.385Z,997.95
2018-07-09T03:59:13.384Z,997.94
2018-07-09T04:00:13.371Z,997.95
2018-07-09T04:01:13.369Z,997.96
2018-07-09T04:02:13.380Z,997.93
2018-07-09T04:03:13.359Z,997.92
2018-07-09T04:04:13.349Z,997.89
2018-07-09T04:05:13.345Z,997.91
2018-07-09T04:06:13.333Z,997.90
2018-07-09T04:07:13.329Z,997.90
2018-07-09T04:08:13.324Z,997.93
2018-07-09T04:09:13.317Z,997.88
2018-07-09T04:10:13.310Z,997.88
2018-07-09T04:11:13.305Z,997.85
2018-07-09T04:12:13.299Z,997.84
2018-07-09T04:13:13.293Z,997.82
2018-07-09T04:14:13.285Z,997.83
2018-07-09T04:15:13.281Z,997.82
2018-07-09T04:16:13.289Z,997.84
2018-07-09T04:17:13.267Z,997.89
2018-07-09T04:18:13.272Z,997.82
2018-07-09T04:19:13.256Z,997.89
2018-07-09T04:20:13.248Z,997.87
2018-07-09T04:21:13.245Z,997.91
2018-07-09T04:22:13.238Z,997.91
2018-07-09T04:23:13.256Z,997.90
2018-07-09T04:24:13.241Z,997.92
2018-07-09T04:25:13.224Z,997.94
2018-07-09T04:26:13.219Z,997.95
2018-07-09T04:27:13.225Z,997.96
2018-07-09T04:28:13.203Z,998.01
2018-07-09T04:29:13.200Z,998.00
2018-07-09T04:30:13.192Z,998.03
2018-07-09T04:31:13.186Z,998.03
2018-07-09T04:32:13.179Z,998.03
2018-07-09T04:33:13.174Z,998.05
2018-07-09T04:34:13.236Z,998.08
2018-07-09T04:35:13.161Z,998.04
2018-07-09T04:36:13.168Z,998.07
2018-07-09T04:37:13.149Z,998.08
2018-07-09T04:38:13.144Z,998.07
2018-07-09T04:39:13.137Z,998.03
2018-07-09T04:40:13.132Z,998.05
2018-07-09T04:41:13.127Z,998.04
2018-07-09T04:42:13.120Z,998.08
2018-07-09T04:43:13.158Z,998.06
2018-07-09T04:44:13.111Z,998.07
2018-07-09T04:45:13.103Z,998.09
2018-07-09T04:46:13.102Z,998.06
2018-07-09T04:47:13.090Z,998.04
2018-07-09T04:48:13.088Z,998.02
2018-07-09T04:49:13.082Z,998.00
2018-07-09T04:50:13.101Z,997.99
2018-07-09T04:51:13.083Z,998.05
2018-07-09T04:52:13.087Z,998.01
2018-07-09T04:53:13.061Z,998.01
2018-07-09T04:54:13.060Z,997.97
2018-07-09T04:55:13.046Z,997.99
2018-07-09T04:56:13.041Z,997.95
2018-07-09T04:57:13.034Z,997.98
2018-07-09T04:58:13.029Z,997.99
2018-07-09T04:59:13.037Z,997.96
2018-07-09T05:00:13.016Z,997.99
2018-07-09T05:01:13.021Z,997.98
2018-07-09T05:02:13.004Z,997.94
2018-07-09T05:03:13.000Z,997.94
2018-07-09T05:04:12.993Z,997.98
2018-07-09T05:05:12.993Z,997.97
2018-07-09T05:06:12.988Z,997.96
2018-07-09T05:07:12.977Z,997.93
2018-07-09T05:08:12.971Z,997.95
2018-07-09T05:09:12.965Z,998.01
2018-07-09T05:10:12.959Z,997.97
2018-07-09T05:11:12.958Z,998.00
2018-07-09T05:12:12.947Z,998.00
2018-07-09T05:13:12.942Z,997.98
2018-07-09T05:14:12.937Z,997.96
2018-07-09T05:15:12.931Z,997.97
2018-07-09T05:16:12.922Z,997.98
2018-07-09T05:17:12.919Z,997.98
2018-07-09T05:18:12.913Z,997.98
2018-07-09T05:19:12.907Z,997.98
2018-07-09T05:20:12.921Z,997.98
2018-07-09T05:21:12.895Z,997.97
2018-07-09T05:22:12.889Z,997.93
2018-07-09T05:23:12.886Z,998.00
2018-07-09T05:24:12.879Z,997.96
2018-07-09T05:25:12.873Z,997.93
2018-07-09T05:26:12.868Z,997.94
2018-07-09T05:27:12.864Z,997.96
2018-07-09T05:28:12.859Z,997.96
2018-07-09T05:29:12.851Z,997.94
2018-07-09T05:30:12.845Z,997.94
2018-07-09T05:31:12.839Z,997.96
2018-07-09T05:32:12.833Z,997.93
2018-07-09T05:33:12.836Z,997.91
2018-07-09T05:34:12.820Z,997.90
2018-07-09T05:35:12.824Z,997.89
2018-07-09T05:36:12.813Z,997.94
2018-07-09T05:37:12.809Z,997.93
2018-07-09T05:38:12.799Z,997.94
2018-07-09T05:39:12.816Z,997.97
2018-07-09T05:40:12.821Z,997.95
2018-07-09T05:41:12.782Z,997.93
2018-07-09T05:42:12.773Z,997.95
2018-07-09T05:43:12.776Z,997.96
2018-07-09T05:44:12.768Z,997.96
2018-07-09T05:45:12.768Z,997.95
2018-07-09T05:46:12.755Z,997.92
2018-07-09T05:47:12.751Z,997.95
2018-07-09T05:48:12.745Z,997.93
2018-07-09T05:49:12.737Z,997.98
2018-07-09T05:50:12.731Z,997.94
2018-07-09T05:51:12.726Z,997.94
2018-07-09T05:52:12.721Z,997.93
2018-07-09T05:53:12.715Z,997.97
2018-07-09T05:54:12.708Z,997.99
2018-07-09T05:55:12.705Z,997.98
2018-07-09T05:56:12.699Z,997.99
2018-07-09T05:57:12.701Z,998.01
2018-07-09T05:58:12.683Z,998.02
2018-07-09T05:59:12.680Z,998.05
2018-07-09T06:00:12.678Z,997.99
2018-07-09T06:01:12.671Z,998.00
2018-07-09T06:02:12.665Z,997.99
2018-07-09T06:03:12.659Z,997.98
2018-07-09T06:04:12.654Z,997.98
2018-07-09T06:05:12.650Z,998.00
2018-07-09T06:06:12.642Z,997.91
2018-07-09T06:07:12.636Z,997.95
2018-07-09T06:08:12.631Z,997.91
2018-07-09T06:09:12.629Z,997.94
2018-07-09T06:10:12.619Z,997.95
2018-07-09T06:11:12.660Z,998.00
2018-07-09T06:12:12.610Z,998.03
2018-07-09T06:13:12.614Z,998.03
2018-07-09T06:14:12.593Z,998.02
2018-07-09T06:15:12.592Z,998.04
2018-07-09T06:16:12.586Z,998.02
2018-07-09T06:17:12.584Z,998.01
2018-07-09T06:18:12.576Z,997.97
2018-07-09T06:19:12.642Z,997.95
2018-07-09T06:20:12.564Z,997.93
2018-07-09T06:21:12.560Z,997.92
2018-07-09T06:22:12.556Z,997.92
2018-07-09T06:23:12.548Z,997.87
2018-07-09T06:24:12.542Z,997.90
2018-07-09T06:25:12.538Z,997.92
2018-07-09T06:26:12.532Z,997.90
2018-07-09T06:27:12.518Z,997.94
2018-07-09T06:28:12.525Z,997.94
2018-07-09T06:29:12.515Z,997.94
2018-07-09T06:30:12.511Z,997.97
2018-07-09T06:31:12.505Z,997.94
2018-07-09T06:32:12.497Z,997.93
2018-07-09T06:33:12.493Z,997.93
2018-07-09T06:34:12.499Z,997.93
2018-07-09T06:35:12.484Z,997.90
2018-07-09T06:36:12.481Z,997.90
2018-07-09T06:37:12.471Z,997.90
2018-07-09T06:38:12.463Z,997.91
2018-07-09T06:39:12.477Z,997.92
2018-07-09T06:40:12.455Z,997.94
2018-07-09T06:41:12.445Z,997.97
2018-07-09T06:42:12.452Z,997.95
2018-07-09T06:43:12.463Z,998.01
2018-07-09T06:44:12.431Z,998.03
2018-07-09T06:45:12.434Z,998.04
2018-07-09T06:46:12.474Z,998.02
2018-07-09T06:47:12.420Z,998.03
2018-07-09T06:48:12.430Z,998.02
2018-07-09T06:49:12.410Z,998.02
2018-07-09T06:50:12.401Z,998.04
2018-07-09T06:51:12.397Z,998.07
2018-07-09T06:52:12.388Z,998.08
2018-07-09T06:53:12.387Z,998.09
2018-07-09T06:54:12.380Z,998.05
2018-07-09T06:55:12.371Z,998.04
2018-07-09T06:56:12.381Z,998.02
2018-07-09T06:57:12.362Z,998.00
2018-07-09T06:58:12.362Z,997.99
2018-07-09T06:59:12.351Z,997.94
2018-07-09T07:00:12.346Z,997.94
2018-07-09T07:01:12.344Z,997.95
2018-07-09T07:02:12.387Z,997.92
2018-07-09T07:03:12.330Z,997.90
2018-07-09T07:04:12.326Z,997.93
2018-07-09T07:05:12.321Z,997.96
2018-07-09T07:06:12.314Z,997.96
2018-07-09T07:07:12.309Z,997.95
2018-07-09T07:08:12.303Z,997.98
2018-07-09T07:09:12.396Z,997.98
2018-07-09T07:10:12.294Z,997.99
2018-07-09T07:11:12.288Z,997.95
2018-07-09T07:12:12.303Z,997.96
2018-07-09T07:13:12.281Z,997.96
2018-07-09T07:14:12.287Z,998.01
2018-07-09T07:15:12.267Z,997.97
2018-07-09T07:16:12.261Z,997.95
2018-07-09T07:17:12.267Z,997.95
2018-07-09T07:18:12.254Z,997.88
2018-07-09T07:19:12.245Z,997.92
2018-07-09T07:20:12.241Z,997.89
2018-07-09T07:21:12.238Z,997.86
2018-07-09T07:22:12.228Z,997.85
2018-07-09T07:23:12.226Z,997.87
2018-07-09T07:24:12.220Z,997.85
2018-07-09T07:25:12.227Z,997.86
2018-07-09T07:26:12.210Z,997.89
2018-07-09T07:27:12.205Z,997.93
2018-07-09T07:28:12.200Z,997.88
2018-07-09T07:29:12.193Z,997.91
2018-07-09T07:30:12.187Z,997.89
2018-07-09T07:31:12.182Z,997.90
2018-07-09T07:32:12.178Z,997.84
2018-07-09T07:33:12.217Z,997.94
2018-07-09T07:34:12.165Z,997.92
2018-07-09T07:35:12.215Z,997.88
2018-07-09T07:36:12.156Z,997.91
2018-07-09T07:37:12.152Z,997.93
2018-07-09T07:38:12.146Z,997.91
2018-07-09T07:39:12.140Z,997.96
2018-07-09T07:40:12.135Z,997.91
2018-07-09T07:41:12.122Z,997.88
2018-07-09T07:42:12.142Z,997.88
2018-07-09T07:43:12.116Z,997.91
2018-07-09T07:44:12.114Z,997.92
2018-07-09T07:45:12.110Z,997.83
2018-07-09T07:46:12.103Z,997.84
2018-07-09T07:47:12.099Z,997.83
2018-07-09T07:48:12.094Z,997.86
2018-07-09T07:49:12.090Z,997.86
2018-07-09T07:50:12.161Z,997.84
2018-07-09T07:51:12.077Z,997.79
2018-07-09T07:52:12.072Z,997.79
2018-07-09T07:53:12.068Z,997.80
2018-07-09T07:54:12.064Z,997.82
2018-07-09T07:55:12.077Z,997.79
2018-07-09T07:56:12.053Z,997.77
2018-07-09T07:57:12.052Z,997.83
2018-07-09T07:58:12.043Z,997.80
2018-07-09T07:59:12.038Z,997.81
2018-07-09T08:00:12.036Z,997.85
2018-07-09T08:01:12.020Z,997.89
2018-07-09T08:02:12.023Z,997.90
2018-07-09T08:03:12.030Z,997.89
2018-07-09T08:04:12.012Z,997.91
2018-07-09T08:05:12.006Z,997.96
2018-07-09T08:06:12.002Z,997.84
2018-07-09T08:07:12.010Z,997.92
2018-07-09T08:08:11.992Z,997.90
2018-07-09T08:09:12.042Z,997.88
2018-07-09T08:10:11.981Z,997.89
2018-07-09T08:11:11.977Z,997.91
2018-07-09T08:13:00.557Z,997.89
2018-07-09T08:13:27.981Z,997.91
2018-07-09T08:14:11.961Z,997.88
2018-07-09T08:15:11.956Z,997.81
2018-07-09T08:16:11.952Z,997.85
2018-07-09T08:17:11.957Z,997.84
2018-07-09T08:18:11.941Z,997.86
2018-07-09T08:19:11.932Z,997.83
2018-07-09T08:20:11.931Z,997.84
2018-07-09T08:21:11.926Z,997.82
2018-07-09T08:22:11.922Z,997.80
2018-07-09T08:23:11.914Z,997.86
2018-07-09T08:24:11.911Z,997.79
2018-07-09T08:25:11.937Z,997.84
2018-07-09T08:26:11.901Z,997.83
2018-07-09T08:27:11.900Z,997.80
2018-07-09T08:28:11.892Z,997.79
2018-07-09T08:29:11.904Z,997.79
2018-07-09T08:30:11.882Z,997.81
2018-07-09T08:31:11.983Z,997.79
2018-07-09T08:32:11.872Z,997.83
2018-07-09T08:33:11.868Z,997.80
2018-07-09T08:34:11.856Z,997.78
2018-07-09T08:35:11.860Z,997.84
2018-07-09T08:36:11.854Z,997.77
2018-07-09T08:37:11.860Z,997.84
2018-07-09T08:38:11.842Z,997.77
2018-07-09T08:39:11.838Z,997.80
2018-07-09T08:40:11.833Z,997.80
2018-07-09T08:41:11.829Z,997.77
2018-07-09T08:42:11.823Z,997.76
2018-07-09T08:43:11.849Z,997.77
2018-07-09T08:44:11.814Z,997.78
2018-07-09T08:45:11.809Z,997.82
2018-07-09T08:46:11.804Z,997.80
2018-07-09T08:47:11.801Z,997.76
2018-07-09T08:48:11.791Z,997.76
2018-07-09T08:49:11.790Z,997.77
2018-07-09T08:50:11.784Z,997.74
2018-07-09T08:51:11.787Z,997.74
2018-07-09T08:52:11.798Z,997.70
2018-07-09T08:53:11.773Z,997.72
2018-07-09T08:54:11.765Z,997.69
2018-07-09T08:55:11.793Z,997.70
2018-07-09T08:56:11.757Z,997.77
2018-07-09T08:57:11.753Z,997.70
2018-07-09T08:58:11.745Z,997.75
2018-07-09T08:59:11.742Z,997.78
2018-07-09T09:00:11.737Z,997.76
2018-07-09T09:01:11.726Z,997.79
2018-07-09T09:02:11.734Z,997.69
2018-07-09T09:03:11.723Z,997.72
2018-07-09T09:04:11.717Z,997.67
2018-07-09T09:05:11.714Z,997.63
2018-07-09T09:06:11.710Z,997.65
2018-07-09T09:07:11.704Z,997.65
2018-07-09T09:08:11.700Z,997.64
2018-07-09T09:09:11.695Z,997.65
2018-07-09T09:10:11.753Z,997.69
2018-07-09T09:11:11.686Z,997.70
2018-07-09T09:12:11.696Z,997.64
2018-07-09T09:13:11.676Z,997.69
2018-07-09T09:14:11.679Z,997.68
2018-07-09T09:15:11.670Z,997.70
2018-07-09T09:16:11.663Z,997.63
2018-07-09T09:17:11.662Z,997.59
2018-07-09T09:18:11.653Z,997.63
2018-07-09T09:19:11.649Z,997.57
2018-07-09T09:20:11.645Z,997.62
2018-07-09T09:21:11.643Z,997.60
2018-07-09T09:22:11.665Z,997.56
2018-07-09T09:23:11.647Z,997.63
2018-07-09T09:24:11.626Z,997.64
2018-07-09T09:25:11.624Z,997.62
2018-07-09T09:26:11.618Z,997.62
2018-07-09T09:27:11.887Z,997.61
2018-07-09T09:28:11.620Z,997.61
2018-07-09T09:29:11.605Z,997.52
2018-07-09T09:30:11.600Z,997.62
2018-07-09T09:31:11.640Z,997.55
2018-07-09T09:32:11.631Z,997.55
2018-07-09T09:33:11.588Z,997.53
2018-07-09T09:34:11.582Z,997.56
2018-07-09T09:35:11.577Z,997.57
2018-07-09T09:36:11.576Z,997.57
2018-07-09T09:37:11.571Z,997.56
2018-07-09T09:38:11.566Z,997.54
2018-07-09T09:39:12.546Z,997.55
2018-07-09T09:40:11.625Z,997.53
2018-07-09T09:41:11.550Z,997.54
2018-07-09T09:42:11.547Z,997.53
2018-07-09T09:43:11.602Z,997.50
2018-07-09T09:44:11.538Z,997.51
2018-07-09T09:45:11.537Z,997.49
2018-07-09T09:46:11.538Z,997.46
2018-07-09T09:47:11.530Z,997.39
2018-07-09T09:48:11.520Z,997.43
2018-07-09T09:49:11.520Z,997.35
2018-07-09T09:50:11.520Z,997.34
2018-07-09T09:51:11.509Z,997.42
2018-07-09T09:52:11.542Z,997.40
2018-07-09T09:53:11.501Z,997.38
2018-07-09T09:54:11.496Z,997.38
2018-07-09T09:55:11.490Z,997.34
2018-07-09T09:56:11.483Z,997.31
2018-07-09T09:57:11.482Z,997.38
2018-07-09T09:58:11.477Z,997.36
2018-07-09T09:59:11.473Z,997.35
2018-07-09T10:00:11.468Z,997.33
2018-07-09T10:01:11.462Z,997.35
2018-07-09T10:02:11.458Z,997.32
2018-07-09T10:03:11.454Z,997.28
2018-07-09T10:04:11.452Z,997.27
2018-07-09T10:05:11.445Z,997.29
2018-07-09T10:06:11.451Z,997.24
2018-07-09T10:07:11.438Z,997.27
2018-07-09T10:08:11.434Z,997.31
2018-07-09T10:09:11.430Z,997.29
2018-07-09T10:10:11.433Z,997.29
2018-07-09T10:11:11.423Z,997.25
2018-07-09T10:12:11.417Z,997.25
2018-07-09T10:13:11.417Z,997.21
2018-07-09T10:14:11.410Z,997.22
2018-07-09T10:15:11.406Z,997.19
2018-07-09T10:16:11.396Z,997.21
2018-07-09T10:17:11.397Z,997.23
2018-07-09T10:18:11.406Z,997.16
2018-07-09T10:19:11.388Z,997.15
2018-07-09T10:20:11.385Z,997.16
2018-07-09T10:21:11.380Z,997.16
2018-07-09T10:22:11.374Z,997.16
2018-07-09T10:23:11.559Z,997.20
2018-07-09T10:24:11.366Z,997.17
2018-07-09T10:25:11.363Z,997.16
2018-07-09T10:26:11.359Z,997.14
2018-07-09T10:27:11.356Z,997.15
2018-07-09T10:28:11.350Z,997.24
2018-07-09T10:29:11.345Z,997.19
2018-07-09T10:30:11.342Z,997.22
2018-07-09T10:31:11.337Z,997.16
2018-07-09T10:32:11.333Z,997.18
2018-07-09T10:33:11.330Z,997.12
2018-07-09T10:34:11.325Z,997.13
2018-07-09T10:35:11.315Z,997.12
2018-07-09T10:36:11.317Z,997.08
2018-07-09T10:37:11.356Z,997.09
2018-07-09T10:38:11.310Z,997.09
2018-07-09T10:39:11.303Z,997.12
2018-07-09T10:40:11.301Z,997.05
2018-07-09T10:41:11.297Z,997.06
2018-07-09T10:42:11.294Z,997.08
2018-07-09T10:43:11.289Z,997.02
2018-07-09T10:44:11.284Z,997.00
2018-07-09T10:45:11.302Z,997.02
2018-07-09T10:46:11.276Z,997.03
2018-07-09T10:47:11.335Z,997.02
2018-07-09T10:48:11.268Z,996.97
2018-07-09T10:49:11.265Z,996.92
2018-07-09T10:50:11.260Z,996.99
2018-07-09T10:51:11.258Z,997.00
2018-07-09T10:52:11.253Z,996.98
2018-07-09T10:53:11.252Z,996.97
2018-07-09T10:54:11.247Z,996.96
2018-07-09T10:55:11.245Z,997.01
2018-07-09T10:56:11.235Z,996.92
2018-07-09T10:57:11.233Z,996.96
2018-07-09T10:58:11.227Z,996.97
2018-07-09T10:59:11.224Z,996.91
2018-07-09T11:00:11.221Z,996.99
2018-07-09T11:01:11.217Z,996.96
2018-07-09T11:02:11.212Z,997.02
2018-07-09T11:03:11.210Z,996.96
2018-07-09T11:04:11.204Z,996.98
2018-07-09T11:05:11.199Z,996.93
2018-07-09T11:06:11.196Z,996.90
2018-07-09T11:07:11.194Z,996.88
2018-07-09T11:08:11.188Z,996.91
2018-07-09T11:09:11.184Z,996.89
2018-07-09T11:10:11.181Z,996.87
2018-07-09T11:11:11.176Z,996.97
2018-07-09T11:12:11.173Z,996.92
2018-07-09T11:13:11.169Z,996.84
2018-07-09T11:14:11.165Z,996.88
2018-07-09T11:15:11.161Z,996.87
2018-07-09T11:16:11.176Z,996.85
2018-07-09T11:17:11.151Z,996.81
2018-07-09T11:18:11.150Z,996.86
2018-07-09T11:19:11.144Z,996.80
2018-07-09T11:20:11.140Z,996.85
2018-07-09T11:21:11.137Z,996.87
2018-07-09T11:22:11.133Z,996.88
2018-07-09T11:23:11.126Z,996.83
2018-07-09T11:24:11.125Z,996.80
2018-07-09T11:25:11.121Z,996.85
2018-07-09T11:26:11.118Z,996.84
2018-07-09T11:27:11.114Z,996.78
2018-07-09T11:28:11.111Z,996.87
2018-07-09T11:29:11.107Z,996.83
2018-07-09T11:30:11.102Z,996.83
2018-07-09T11:31:11.100Z,996.83
2018-07-09T11:32:11.095Z,996.81
2018-07-09T11:33:11.090Z,996.79
2018-07-09T11:34:11.102Z,996.79
2018-07-09T11:35:11.082Z,996.79
2018-07-09T11:36:11.080Z,996.77
2018-07-09T11:37:11.076Z,996.76
2018-07-09T11:38:11.070Z,996.70
2018-07-09T11:39:11.066Z,996.69
2018-07-09T11:40:11.064Z,996.72
2018-07-09T11:41:11.059Z,996.71
2018-07-09T11:42:11.071Z,996.65
2018-07-09T11:43:11.055Z,996.72
2018-07-09T11:44:11.048Z,996.67
2018-07-09T11:45:11.045Z,996.67
2018-07-09T11:46:11.040Z,996.77
2018-07-09T11:47:11.036Z,996.71
2018-07-09T11:48:11.033Z,996.75
2018-07-09T11:49:11.029Z,996.76
2018-07-09T11:50:11.023Z,996.72
2018-07-09T11:51:11.022Z,996.72
2018-07-09T11:52:11.022Z,996.67
2018-07-09T11:53:11.012Z,996.68
2018-07-09T11:54:11.027Z,996.70
2018-07-09T11:55:11.006Z,996.66
2018-07-09T11:56:11.002Z,996.70
2018-07-09T11:57:10.998Z,996.67
2018-07-09T11:58:10.993Z,996.62
2018-07-09T11:59:10.990Z,996.64
2018-07-09T12:00:10.989Z,996.58
2018-07-09T12:01:10.983Z,996.59
2018-07-09T12:02:10.978Z,996.56
2018-07-09T12:03:10.974Z,996.61
2018-07-09T12:04:10.988Z,996.63
2018-07-09T12:05:10.968Z,996.65
2018-07-09T12:06:10.963Z,996.68
2018-07-09T12:07:10.962Z,996.69
2018-07-09T12:08:10.955Z,996.67
2018-07-09T12:09:10.952Z,996.70
2018-07-09T12:10:10.949Z,996.77
2018-07-09T12:11:10.948Z,996.74
2018-07-09T12:12:10.941Z,996.74
2018-07-09T12:13:10.949Z,996.66
2018-07-09T12:14:10.933Z,996.66
2018-07-09T12:15:10.929Z,996.70
2018-07-09T12:16:10.925Z,996.67
2018-07-09T12:17:10.921Z,996.67
2018-07-09T12:18:10.916Z,996.60
2018-07-09T12:19:10.913Z,996.66
2018-07-09T12:20:10.910Z,996.57
2018-07-09T12:21:10.903Z,996.50
2018-07-09T12:22:10.901Z,996.56
2018-07-09T12:23:10.914Z,996.60
2018-07-09T12:24:10.898Z,996.62
2018-07-09T12:25:10.891Z,996.65
2018-07-09T12:26:10.885Z,996.63
2018-07-09T12:27:10.882Z,996.68
2018-07-09T12:28:10.881Z,996.67